createdAt,value
2018-09-19T00:01:02.226Z,16.00
2018-09-19T00:03:30.458Z,15.90
2018-09-19T00:05:59.163Z,15.90
2018-09-19T00:08:27.326Z,15.90
2018-09-19T00:10:55.637Z,15.90
2018-09-19T00:13:23.791Z,15.80
2018-09-19T00:15:52.194Z,15.80
2018-09-19T00:18:20.649Z,15.80
2018-09-19T00:20:49.195Z,15.80
2018-09-19T00:23:17.313Z,15.70
2018-09-19T00:25:45.533Z,15.70
2018-09-19T00:28:13.870Z,15.70
2018-09-19T00:30:42.172Z,15.60
2018-09-19T00:33:10.451Z,15.60
2018-09-19T00:35:38.595Z,15.50
2018-09-19T00:38:07.074Z,15.50
2018-09-19T00:40:35.240Z,15.50
2018-09-19T00:43:03.476Z,15.40
2018-09-19T00:45:31.592Z,15.40
2018-09-19T00:47:59.833Z,15.40
2018-09-19T00:50:27.926Z,15.40
2018-09-19T00:52:56.422Z,15.40
2018-09-19T00:55:24.649Z,15.30
2018-09-19T00:57:52.820Z,15.30
2018-09-19T01:00:21.193Z,15.30
2018-09-19T01:02:49.306Z,15.30
2018-09-19T01:05:17.659Z,15.30
2018-09-19T01:07:46.401Z,15.20
2018-09-19T01:10:14.580Z,15.10
2018-09-19T01:12:42.759Z,15.10
2018-09-19T01:15:10.952Z,15.10
2018-09-19T01:17:39.213Z,15.00
2018-09-19T01:20:07.354Z,15.00
2018-09-19T01:23:06.595Z,15.00
2018-09-19T01:25:34.799Z,15.00
2018-09-19T01:28:03.228Z,15.00
2018-09-19T01:30:31.446Z,15.00
2018-09-19T01:32:59.659Z,15.00
2018-09-19T01:35:28.067Z,15.00
2018-09-19T01:37:56.295Z,15.00
2018-09-19T01:40:24.409Z,15.00
2018-09-19T01:42:52.934Z,15.00
2018-09-19T01:45:21.066Z,15.00
2018-09-19T01:47:49.419Z,15.00
2018-09-19T01:50:18.085Z,14.90
2018-09-19T01:52:46.195Z,14.90
2018-09-19T01:55:15.450Z,14.90
2018-09-19T01:57:43.586Z,14.90
2018-09-19T02:00:11.749Z,14.90
2018-09-19T02:02:39.963Z,14.90
2018-09-19T02:05:08.445Z,14.80
2018-09-19T02:07:36.906Z,14.80
2018-09-19T02:10:05.054Z,14.80
2018-09-19T02:12:33.769Z,14.80
2018-09-19T02:15:01.934Z,14.80
2018-09-19T02:17:30.130Z,14.80
2018-09-19T02:19:58.278Z,14.80
2018-09-19T02:22:26.425Z,14.80
2018-09-19T02:24:55.049Z,14.80
2018-09-19T02:27:23.192Z,14.80
2018-09-19T02:29:51.466Z,14.80
2018-09-19T02:32:19.639Z,14.80
2018-09-19T02:34:47.845Z,14.80
2018-09-19T02:37:15.981Z,14.80
2018-09-19T02:39:44.428Z,14.80
2018-09-19T02:42:12.554Z,14.70
2018-09-19T02:44:40.769Z,14.70
2018-09-19T02:47:08.948Z,14.70
2018-09-19T02:49:37.103Z,14.70
2018-09-19T02:52:05.246Z,14.60
2018-09-19T02:54:33.433Z,14.60
2018-09-19T02:57:01.930Z,14.60
2018-09-19T02:59:30.075Z,14.60
2018-09-19T03:01:58.448Z,14.50
2018-09-19T03:04:26.657Z,14.50
2018-09-19T03:06:54.803Z,14.50
2018-09-19T03:09:22.970Z,14.70
2018-09-19T03:11:51.225Z,14.40
2018-09-19T03:14:19.318Z,14.30
2018-09-19T03:16:47.542Z,14.30
2018-09-19T03:19:16.609Z,14.20
2018-09-19T03:21:44.846Z,14.20
2018-09-19T03:24:12.949Z,14.20
2018-09-19T03:26:42.265Z,14.20
2018-09-19T03:29:10.519Z,14.30
2018-09-19T03:31:38.712Z,14.20
2018-09-19T03:34:07.197Z,14.20
2018-09-19T03:36:35.391Z,14.20
2018-09-19T03:39:04.116Z,14.20
2018-09-19T03:41:32.537Z,14.10
2018-09-19T03:44:00.751Z,14.00
2018-09-19T03:46:28.861Z,14.00
2018-09-19T03:48:57.100Z,14.00
2018-09-19T03:51:25.251Z,13.90
2018-09-19T03:53:53.429Z,13.80
2018-09-19T03:56:21.555Z,13.60
2018-09-19T03:58:49.766Z,13.60
2018-09-19T04:01:17.958Z,13.50
2018-09-19T04:03:46.081Z,13.50
2018-09-19T04:06:14.427Z,13.50
2018-09-19T04:08:47.471Z,13.40
2018-09-19T04:11:15.627Z,13.40
2018-09-19T04:13:43.917Z,13.30
2018-09-19T04:16:12.134Z,13.40
2018-09-19T04:18:40.264Z,13.60
2018-09-19T04:21:08.521Z,13.60
2018-09-19T04:23:36.733Z,13.70
2018-09-19T04:26:05.160Z,13.70
2018-09-19T04:28:33.265Z,13.80
2018-09-19T04:31:01.645Z,13.80
2018-09-19T04:33:30.149Z,13.80
2018-09-19T04:35:58.305Z,13.80
2018-09-19T04:38:26.510Z,13.80
2018-09-19T04:40:54.966Z,13.80
2018-09-19T04:43:23.208Z,13.70
2018-09-19T04:45:51.305Z,13.60
2018-09-19T04:48:19.481Z,13.60
2018-09-19T04:50:47.760Z,13.60
2018-09-19T04:53:15.966Z,13.70
2018-09-19T04:55:44.115Z,13.80
2018-09-19T04:58:12.326Z,13.70
2018-09-19T05:00:40.467Z,13.70
2018-09-19T05:03:08.714Z,13.80
2018-09-19T05:05:36.973Z,13.90
2018-09-19T05:08:05.566Z,14.00
2018-09-19T05:10:34.235Z,14.00
2018-09-19T05:13:02.348Z,14.10
2018-09-19T05:15:30.543Z,14.20
2018-09-19T05:17:58.910Z,14.30
2018-09-19T05:20:27.119Z,14.40
2018-09-19T05:22:55.251Z,14.50
2018-09-19T05:25:23.633Z,14.50
2018-09-19T05:27:51.905Z,14.60
2018-09-19T05:30:19.995Z,14.60
2018-09-19T05:32:48.498Z,14.60
2018-09-19T05:35:16.658Z,14.50
2018-09-19T05:37:45.357Z,14.50
2018-09-19T05:40:14.097Z,14.60
2018-09-19T05:42:42.254Z,14.70
2018-09-19T05:45:10.437Z,14.70
2018-09-19T05:47:38.559Z,14.80
2018-09-19T05:50:06.717Z,14.90
2018-09-19T05:52:34.897Z,14.80
2018-09-19T05:55:03.077Z,14.70
2018-09-19T05:57:31.159Z,14.70
2018-09-19T05:59:59.310Z,14.70
2018-09-19T06:02:27.825Z,14.70
2018-09-19T06:04:56.005Z,14.70
2018-09-19T06:07:24.818Z,14.80
2018-09-19T06:09:52.941Z,14.90
2018-09-19T06:13:24.291Z,15.00
2018-09-19T06:15:52.530Z,15.00
2018-09-19T06:18:20.661Z,15.20
2018-09-19T06:20:48.945Z,15.70
2018-09-19T06:23:17.073Z,15.90
2018-09-19T06:25:45.347Z,16.10
2018-09-19T06:28:13.583Z,16.40
2018-09-19T06:30:41.703Z,16.60
2018-09-19T06:33:10.019Z,17.30
2018-09-19T06:35:38.036Z,17.80
2018-09-19T06:38:06.913Z,18.30
2018-09-19T06:40:35.121Z,18.20
2018-09-19T06:43:03.309Z,18.50
2018-09-19T06:45:32.115Z,18.10
2018-09-19T06:48:00.610Z,18.20
2018-09-19T06:50:28.730Z,18.50
2018-09-19T06:52:57.784Z,18.70
2018-09-19T06:55:25.943Z,18.20
2018-09-19T06:57:54.086Z,17.80
2018-09-19T07:00:22.329Z,17.60
2018-09-19T07:02:50.437Z,17.60
2018-09-19T07:05:18.676Z,17.50
2018-09-19T07:07:46.905Z,17.50
2018-09-19T07:10:19.697Z,17.50
2018-09-19T07:12:48.491Z,17.90
2018-09-19T07:15:16.786Z,18.10
2018-09-19T07:17:44.921Z,18.40
2018-09-19T07:20:13.522Z,18.90
2018-09-19T07:22:41.658Z,19.20
2018-09-19T07:25:10.824Z,19.50
2018-09-19T07:27:39.022Z,20.10
2018-09-19T07:30:07.427Z,20.70
2018-09-19T07:32:35.594Z,20.70
2018-09-19T07:35:04.668Z,21.10
2018-09-19T07:37:33.091Z,20.70
2018-09-19T07:40:01.248Z,21.30
2018-09-19T07:42:29.674Z,21.60
2018-09-19T07:44:57.818Z,21.50
2018-09-19T07:47:26.002Z,21.60
2018-09-19T07:49:54.204Z,22.20
2018-09-19T07:52:22.853Z,22.10
2018-09-19T07:54:51.057Z,22.40
2018-09-19T07:57:19.552Z,22.70
2018-09-19T07:59:47.729Z,22.80
2018-09-19T08:02:16.360Z,23.30
2018-09-19T08:04:44.485Z,22.80
2018-09-19T08:07:12.793Z,23.00
2018-09-19T08:09:41.029Z,22.80
2018-09-19T08:12:09.137Z,22.80
2018-09-19T08:14:37.738Z,23.30
2018-09-19T08:17:06.256Z,23.50
2018-09-19T08:19:34.382Z,24.30
2018-09-19T08:22:02.577Z,24.40
2018-09-19T08:24:30.851Z,24.30
2018-09-19T08:26:59.105Z,24.00
2018-09-19T08:29:27.906Z,23.50
2018-09-19T08:31:56.149Z,23.90
2018-09-19T08:34:24.245Z,24.20
2018-09-19T08:36:52.890Z,23.90
2018-09-19T08:39:21.257Z,23.30
2018-09-19T08:41:49.385Z,23.00
2018-09-19T08:44:17.783Z,23.70
2018-09-19T08:46:46.012Z,23.80
2018-09-19T08:49:15.294Z,24.40
2018-09-19T08:51:43.434Z,25.50
2018-09-19T08:54:11.746Z,24.70
2018-09-19T08:56:39.878Z,25.00
2018-09-19T08:59:08.117Z,25.90
2018-09-19T09:01:36.444Z,26.10
2018-09-19T09:04:04.612Z,25.90
2018-09-19T09:06:32.849Z,25.90
2018-09-19T09:09:01.088Z,26.00
2018-09-19T09:11:29.357Z,26.00
2018-09-19T09:13:57.530Z,26.70
2018-09-19T09:16:25.890Z,25.50
2018-09-19T09:18:54.278Z,26.50
2018-09-19T09:21:22.874Z,27.30
2018-09-19T09:23:51.133Z,27.80
2018-09-19T09:26:19.333Z,27.00
2018-09-19T09:28:47.985Z,26.70
2018-09-19T09:31:16.232Z,26.70
2018-09-19T09:33:45.271Z,27.30
2018-09-19T09:36:13.461Z,27.40
2018-09-19T09:38:41.598Z,27.30
2018-09-19T09:41:10.688Z,28.20
2018-09-19T09:43:39.306Z,27.80
2018-09-19T09:46:07.380Z,28.00
2018-09-19T09:48:35.622Z,28.20
2018-09-19T09:51:03.862Z,28.20
2018-09-19T09:56:00.250Z,28.80
2018-09-19T09:58:28.326Z,28.70
2018-09-19T10:00:56.949Z,28.90
2018-09-19T10:03:25.218Z,29.00
2018-09-19T10:05:53.409Z,29.70
2018-09-19T10:08:21.541Z,29.10
2018-09-19T10:10:50.039Z,28.90
2018-09-19T10:13:18.237Z,28.70
2018-09-19T10:15:46.387Z,29.20
2018-09-19T10:18:14.643Z,29.40
2018-09-19T10:20:43.230Z,29.00
2018-09-19T10:23:11.486Z,29.30
2018-09-19T10:25:39.645Z,29.70
2018-09-19T10:28:07.775Z,29.50
2018-09-19T10:30:36.699Z,29.40
2018-09-19T10:33:05.146Z,29.80
2018-09-19T10:35:33.926Z,30.10
2018-09-19T10:38:02.562Z,28.60
2018-09-19T10:40:31.618Z,28.80
2018-09-19T10:43:02.114Z,30.00
2018-09-19T10:45:30.555Z,29.50
2018-09-19T10:47:58.762Z,29.90
2018-09-19T10:50:26.929Z,28.50
2018-09-19T10:52:55.339Z,27.20
2018-09-19T10:55:23.581Z,28.10
2018-09-19T10:57:51.688Z,27.50
2018-09-19T11:00:19.911Z,28.10
2018-09-19T11:02:48.086Z,28.70
2018-09-19T11:05:17.201Z,28.00
2018-09-19T11:07:45.811Z,27.80
2018-09-19T11:10:13.945Z,28.20
2018-09-19T11:12:42.153Z,28.60
2018-09-19T11:15:10.699Z,28.50
2018-09-19T11:17:39.352Z,28.10
2018-09-19T11:20:08.180Z,28.60
2018-09-19T11:22:36.794Z,29.20
2018-09-19T11:25:05.397Z,29.60
2018-09-19T11:27:33.613Z,29.70
2018-09-19T11:30:01.796Z,30.00
2018-09-19T11:32:29.955Z,29.80
2018-09-19T11:34:59.288Z,28.80
2018-09-19T11:37:27.835Z,29.50
2018-09-19T11:39:56.100Z,29.20
2018-09-19T11:42:24.282Z,28.80
2018-09-19T11:44:53.025Z,28.00
2018-09-19T11:47:21.122Z,28.20
2018-09-19T11:49:49.317Z,28.80
2018-09-19T11:52:17.944Z,27.90
2018-09-19T11:54:46.714Z,27.20
2018-09-19T11:57:15.311Z,26.60
2018-09-19T11:59:43.750Z,26.80
2018-09-19T12:02:11.958Z,27.40
2018-09-19T12:04:40.286Z,27.40
2018-09-19T12:07:08.723Z,28.00
2018-09-19T12:09:37.511Z,28.20
2018-09-19T12:12:06.118Z,27.80
2018-09-19T12:14:34.382Z,28.00
2018-09-19T12:17:02.673Z,27.70
2018-09-19T12:19:30.963Z,27.40
2018-09-19T12:22:00.957Z,27.40
2018-09-19T12:24:29.078Z,27.60
2018-09-19T12:26:57.386Z,26.90
2018-09-19T12:29:25.540Z,27.40
2018-09-19T12:31:53.762Z,28.00
2018-09-19T12:34:21.885Z,28.00
2018-09-19T12:36:50.397Z,28.00
2018-09-19T12:39:18.577Z,27.30
2018-09-19T12:41:47.638Z,26.90
2018-09-19T12:44:15.842Z,26.20
2018-09-19T12:46:44.007Z,26.10
2018-09-19T12:49:12.260Z,26.00
2018-09-19T12:51:40.330Z,26.00
2018-09-19T12:54:09.237Z,26.10
2018-09-19T12:56:37.499Z,26.10
2018-09-19T12:59:05.770Z,26.20
2018-09-19T13:01:34.450Z,26.10
2018-09-19T13:04:02.524Z,26.10
2018-09-19T13:06:31.498Z,26.20
2018-09-19T13:08:59.613Z,26.30
2018-09-19T13:11:27.783Z,26.10
2018-09-19T13:13:56.606Z,25.90
2018-09-19T13:16:24.761Z,25.90
2018-09-19T13:18:52.930Z,26.00
2018-09-19T13:21:21.330Z,26.10
2018-09-19T13:23:49.476Z,26.30
2018-09-19T13:26:17.701Z,26.30
2018-09-19T13:28:46.077Z,26.20
2018-09-19T13:31:14.234Z,26.30
2018-09-19T13:33:42.408Z,26.30
2018-09-19T13:36:11.085Z,26.30
2018-09-19T13:38:39.322Z,26.20
2018-09-19T13:41:08.369Z,26.00
2018-09-19T13:43:36.525Z,25.80
2018-09-19T13:46:04.817Z,25.70
2018-09-19T13:48:33.225Z,25.70
2018-09-19T13:51:06.881Z,25.80
2018-09-19T13:53:35.066Z,25.60
2018-09-19T13:56:03.345Z,25.70
2018-09-19T13:58:32.501Z,25.80
2018-09-19T14:01:00.941Z,25.80
2018-09-19T14:03:29.095Z,26.00
2018-09-19T14:05:57.311Z,26.30
2018-09-19T14:08:25.454Z,26.30
2018-09-19T14:10:53.625Z,26.30
2018-09-19T14:13:22.502Z,26.20
2018-09-19T14:15:50.722Z,26.10
2018-09-19T14:18:18.870Z,25.90
2018-09-19T14:20:48.473Z,25.60
2018-09-19T14:23:16.632Z,25.40
2018-09-19T14:25:44.701Z,25.60
2018-09-19T14:28:13.634Z,25.70
2018-09-19T14:30:41.885Z,25.70
2018-09-19T14:33:12.777Z,25.90
2018-09-19T14:35:41.274Z,25.90
2018-09-19T14:38:09.990Z,25.90
2018-09-19T14:40:38.466Z,25.90
2018-09-19T14:43:07.206Z,25.80
2018-09-19T14:45:35.322Z,25.70
2018-09-19T14:48:03.589Z,25.60
2018-09-19T14:50:31.817Z,25.60
2018-09-19T14:53:00.098Z,25.60
2018-09-19T14:55:28.298Z,25.40
2018-09-19T14:57:56.402Z,25.40
2018-09-19T15:00:24.608Z,25.50
2018-09-19T15:02:53.174Z,25.70
2018-09-19T15:05:21.329Z,25.70
2018-09-19T15:07:49.949Z,25.70
2018-09-19T15:10:18.381Z,25.70
2018-09-19T15:12:46.814Z,25.70
2018-09-19T15:15:14.957Z,25.60
2018-09-19T15:17:43.349Z,25.50
2018-09-19T15:20:11.927Z,25.50
2018-09-19T15:22:40.106Z,25.50
2018-09-19T15:25:08.601Z,25.40
2018-09-19T15:27:36.838Z,25.50
2018-09-19T15:30:05.429Z,25.50
2018-09-19T15:32:33.836Z,25.40
2018-09-19T15:35:02.195Z,25.50
2018-09-19T15:37:30.845Z,25.50
2018-09-19T15:40:00.325Z,25.40
2018-09-19T15:42:28.458Z,25.50
2018-09-19T15:44:56.678Z,25.30
2018-09-19T15:47:25.210Z,25.20
2018-09-19T15:49:53.893Z,25.30
2018-09-19T15:52:22.617Z,25.20
2018-09-19T15:54:51.498Z,25.20
2018-09-19T15:57:19.770Z,25.30
2018-09-19T15:59:48.278Z,25.20
2018-09-19T16:02:16.738Z,25.20
2018-09-19T16:04:44.824Z,25.20
2018-09-19T16:07:14.462Z,25.10
2018-09-19T16:09:43.638Z,25.00
2018-09-19T16:12:12.613Z,24.90
2018-09-19T16:14:41.643Z,24.90
2018-09-19T16:17:10.290Z,24.90
2018-09-19T16:19:39.273Z,24.80
2018-09-19T16:22:07.930Z,24.80
2018-09-19T16:24:36.858Z,24.80
2018-09-19T16:27:05.913Z,24.70
2018-09-19T16:29:34.067Z,24.60
2018-09-19T16:32:03.136Z,24.60
2018-09-19T16:34:31.977Z,24.60
2018-09-19T16:37:00.278Z,24.50
2018-09-19T16:39:28.796Z,24.50
2018-09-19T16:41:57.117Z,24.40
2018-09-19T16:44:25.402Z,24.40
2018-09-19T16:46:55.074Z,24.30
2018-09-19T16:49:23.222Z,24.20
2018-09-19T16:51:52.071Z,24.20
2018-09-19T16:54:20.390Z,24.10
2018-09-19T16:56:48.718Z,24.10
2018-09-19T16:59:16.883Z,24.20
2018-09-19T17:01:45.057Z,24.20
2018-09-19T17:04:13.386Z,24.00
2018-09-19T17:06:41.612Z,24.00
2018-09-19T17:09:10.569Z,24.00
2018-09-19T17:11:38.732Z,23.90
2018-09-19T17:14:06.942Z,23.80
2018-09-19T17:16:35.609Z,23.60
2018-09-19T17:19:04.392Z,23.50
2018-09-19T17:21:33.423Z,23.40
2018-09-19T17:24:03.124Z,23.30
2018-09-19T17:26:31.291Z,23.30
2018-09-19T17:29:00.030Z,23.30
2018-09-19T17:31:28.387Z,23.20
2018-09-19T17:33:56.966Z,23.20
2018-09-19T17:36:25.867Z,23.10
2018-09-19T17:38:55.329Z,23.10
2018-09-19T17:41:23.513Z,23.00
2018-09-19T17:43:52.197Z,22.90
2018-09-19T17:46:20.993Z,22.90
2018-09-19T17:48:49.279Z,22.80
2018-09-19T17:51:17.481Z,22.80
2018-09-19T17:53:45.839Z,22.80
2018-09-19T17:56:14.237Z,22.70
2018-09-19T17:58:42.535Z,22.60
2018-09-19T18:01:11.446Z,22.60
2018-09-19T18:03:39.974Z,22.50
2018-09-19T18:06:08.513Z,22.40
2018-09-19T18:08:36.699Z,22.40
2018-09-19T18:11:04.972Z,22.30
2018-09-19T18:13:33.801Z,22.10
2018-09-19T18:16:02.017Z,21.90
2018-09-19T18:18:31.087Z,21.70
2018-09-19T18:20:59.862Z,21.60
2018-09-19T18:23:28.005Z,21.50
2018-09-19T18:31:38.361Z,21.30
2018-09-19T18:34:07.171Z,21.20
2018-09-19T18:36:35.901Z,21.10
2018-09-19T18:39:05.507Z,21.00
2018-09-19T18:41:33.686Z,20.90
2018-09-19T18:44:02.381Z,20.80
2018-09-19T18:46:30.583Z,20.70
2018-09-19T18:48:58.941Z,20.60
2018-09-19T18:51:27.138Z,20.60
2018-09-19T18:53:55.272Z,20.50
2018-09-19T18:56:23.563Z,20.50
2018-09-19T18:58:52.046Z,20.40
2018-09-19T19:01:21.017Z,20.40
2018-09-19T19:03:50.858Z,20.30
2018-09-19T19:06:19.159Z,20.20
2018-09-19T19:08:48.521Z,20.10
2018-09-19T19:11:16.686Z,20.00
2018-09-19T19:13:44.806Z,19.90
2018-09-19T19:16:13.323Z,19.90
2018-09-19T19:18:41.789Z,19.80
2018-09-19T19:21:10.655Z,19.70
2018-09-19T19:23:38.807Z,19.70
2018-09-19T19:26:07.207Z,19.60
2018-09-19T19:28:35.960Z,19.50
2018-09-19T19:31:05.121Z,19.50
2018-09-19T19:33:33.443Z,19.40
2018-09-19T19:36:01.588Z,19.30
2018-09-19T19:38:29.871Z,19.40
2018-09-19T19:40:58.650Z,19.30
2018-09-19T19:43:26.929Z,19.20
2018-09-19T19:45:56.584Z,19.10
2018-09-19T19:48:24.874Z,19.00
2018-09-19T19:50:53.037Z,19.00
2018-09-19T19:53:21.291Z,18.90
2018-09-19T19:55:50.305Z,18.80
2018-09-19T19:58:18.478Z,18.80
2018-09-19T20:00:47.206Z,18.70
2018-09-19T20:03:15.782Z,18.60
2018-09-19T20:05:44.919Z,18.60
2018-09-19T20:08:13.818Z,18.50
2018-09-19T20:10:41.990Z,18.40
2018-09-19T20:13:10.353Z,18.40
2018-09-19T20:15:38.555Z,18.40
2018-09-19T20:18:06.735Z,18.30
2018-09-19T20:20:35.315Z,18.30
2018-09-19T20:23:03.787Z,18.30
2018-09-19T20:25:32.198Z,18.30
2018-09-19T20:28:00.643Z,18.30
2018-09-19T20:30:29.241Z,18.30
2018-09-19T20:32:57.366Z,18.20
2018-09-19T20:35:25.822Z,18.20
2018-09-19T20:37:54.263Z,18.10
2018-09-19T20:40:22.435Z,18.20
2018-09-19T20:42:50.838Z,18.10
2018-09-19T20:45:18.982Z,18.10
2018-09-19T20:47:47.895Z,18.10
2018-09-19T20:50:16.782Z,18.10
2018-09-19T20:52:44.937Z,18.00
2018-09-19T20:55:13.006Z,18.00
2018-09-19T20:57:41.278Z,17.90
2018-09-19T21:00:10.484Z,17.90
2018-09-19T21:02:38.925Z,17.90
2018-09-19T21:05:07.521Z,18.00
2018-09-19T21:07:36.334Z,17.90
2018-09-19T21:10:04.588Z,17.90
2018-09-19T21:12:33.042Z,17.90
2018-09-19T21:15:01.158Z,17.90
2018-09-19T21:17:29.396Z,17.90
2018-09-19T21:19:57.693Z,17.90
2018-09-19T21:22:26.280Z,17.90
2018-09-19T21:24:54.937Z,18.00
2018-09-19T21:27:23.078Z,18.00
2018-09-19T21:29:51.795Z,18.00
2018-09-19T21:32:20.321Z,17.90
2018-09-19T21:34:48.460Z,18.00
2018-09-19T21:37:17.674Z,18.00
2018-09-19T21:39:45.825Z,18.00
2018-09-19T21:42:14.182Z,18.10
2018-09-19T21:44:42.382Z,18.00
2018-09-19T21:47:10.875Z,18.10
2018-09-19T21:49:39.794Z,18.10
2018-09-19T21:52:08.621Z,18.20
2018-09-19T21:54:37.578Z,18.20
2018-09-19T21:57:06.511Z,18.30
2018-09-19T21:59:34.828Z,18.40
2018-09-19T22:02:03.869Z,18.20
2018-09-19T22:04:32.778Z,18.20
2018-09-19T22:07:01.495Z,18.40
2018-09-19T22:09:30.451Z,18.40
2018-09-19T22:12:14.535Z,18.40
2018-09-19T22:14:43.594Z,18.40
2018-09-19T22:17:12.033Z,18.40
2018-09-19T22:19:41.082Z,18.50
2018-09-19T22:22:09.241Z,18.50
2018-09-19T22:24:37.420Z,18.40
2018-09-19T22:27:06.399Z,18.30
2018-09-19T22:29:35.790Z,18.20
2018-09-19T22:32:04.065Z,18.20
2018-09-19T22:34:32.970Z,18.20
2018-09-19T22:37:02.041Z,18.20
2018-09-19T22:39:30.446Z,18.20
2018-09-19T22:41:59.216Z,18.20
2018-09-19T22:44:27.494Z,18.20
2018-09-19T22:46:56.233Z,18.20
2018-09-19T22:49:25.181Z,18.20
2018-09-19T22:51:54.213Z,18.20
2018-09-19T22:54:22.372Z,18.20
2018-09-19T22:56:51.970Z,18.20
2018-09-19T22:59:20.130Z,18.10
2018-09-19T23:01:49.164Z,18.00
2018-09-19T23:04:18.570Z,18.00
2018-09-19T23:06:47.176Z,18.00
2018-09-19T23:09:15.728Z,17.90
2018-09-19T23:11:44.324Z,17.80
2018-09-19T23:14:12.914Z,17.80
2018-09-19T23:16:41.366Z,17.70
2018-09-19T23:19:09.590Z,17.70
2018-09-19T23:21:37.902Z,17.70
2018-09-19T23:24:06.957Z,17.60
2018-09-19T23:26:35.810Z,17.70
2018-09-19T23:29:04.123Z,17.60
2018-09-19T23:31:32.879Z,17.60
2018-09-19T23:34:01.039Z,17.60
2018-09-19T23:36:29.509Z,17.60
2018-09-19T23:38:57.998Z,17.70
2018-09-19T23:41:26.233Z,17.70
2018-09-19T23:43:54.982Z,17.60
2018-09-19T23:46:24.275Z,17.60
2018-09-19T23:48:53.050Z,17.60
2018-09-19T23:51:22.071Z,17.60
2018-09-19T23:53:50.826Z,17.60
2018-09-19T23:56:19.524Z,17.60
2018-09-19T23:58:48.587Z,17.50
